Time;durP1;ratioP1;P1;durP2;ratioP2;P2;SDS_P1;SDS_P2;PMS_P1;PMS_P2;Temp;Humidity;BMP_temperature;BMP_pressure;BME280_temperature;BME280_humidity;BME280_pressure;Samples;Min_cycle;Max_cycle;Signal;HPM_P1;HPM_P2
2023/06/15 00:00:45;;;;;;;8.93;4.22;;;;;;;;;;5009175;28;20057;-77
2023/06/15 00:03:12;;;;;;;6.65;3.97;;;;;;;;;;5010395;28;20058;-78
2023/06/15 00:05:39;;;;;;;7.22;4.15;;;;;;;;;;5009168;28;20046;-78
2023/06/15 00:08:06;;;;;;;8.45;4.38;;;;;;;;;;5008947;28;20128;-78
2023/06/15 00:10:34;;;;;;;7.60;4.20;;;;;;;;;;5007247;28;20062;-78
2023/06/15 00:13:01;;;;;;;8.38;4.75;;;;;;;;;;5008345;28;20384;-78
2023/06/15 00:15:27;;;;;;;9.52;4.55;;;;;;;;;;5007526;28;20666;-78
2023/06/15 00:17:54;;;;;;;6.32;4.35;;;;;;;;;;5009263;28;20128;-77
2023/06/15 00:20:28;;;;;;;5.82;4.15;;;;;;;;;;5005518;28;20165;-78
2023/06/15 00:22:55;;;;;;;7.88;4.53;;;;;;;;;;5008848;28;20061;-77
2023/06/15 00:25:22;;;;;;;6.60;4.95;;;;;;;;;;5008882;28;20053;-78
2023/06/15 00:27:49;;;;;;;8.55;4.72;;;;;;;;;;5009663;28;20042;-78
2023/06/15 00:30:16;;;;;;;7.28;4.40;;;;;;;;;;5007862;28;20120;-78
2023/06/15 00:32:42;;;;;;;6.75;4.43;;;;;;;;;;5007412;28;20129;-78
2023/06/15 00:35:09;;;;;;;13.43;5.47;;;;;;;;;;5007870;28;20046;-78
2023/06/15 00:37:36;;;;;;;8.57;5.68;;;;;;;;;;5007309;28;20064;-78
2023/06/15 00:40:05;;;;;;;7.75;4.82;;;;;;;;;;5008481;28;20449;-77
2023/06/15 00:42:32;;;;;;;6.32;4.78;;;;;;;;;;5008521;28;20136;-78
2023/06/15 00:44:59;;;;;;;7.03;4.30;;;;;;;;;;5009587;28;20030;-78
2023/06/15 00:47:26;;;;;;;7.53;4.20;;;;;;;;;;5011306;28;20108;-77
2023/06/15 00:49:54;;;;;;;8.00;3.92;;;;;;;;;;5007941;28;20128;-78
2023/06/15 00:52:22;;;;;;;6.80;3.78;;;;;;;;;;5010849;28;20053;-77
2023/06/15 00:54:49;;;;;;;5.78;3.72;;;;;;;;;;5008265;28;20157;-77
2023/06/15 00:57:18;;;;;;;7.18;3.60;;;;;;;;;;5009060;28;20050;-78
2023/06/15 00:59:45;;;;;;;5.97;3.95;;;;;;;;;;5007983;28;20037;-77
2023/06/15 01:02:12;;;;;;;8.25;4.45;;;;;;;;;;5010840;28;20112;-77
2023/06/15 01:04:39;;;;;;;8.45;4.68;;;;;;;;;;5008977;28;20085;-79
2023/06/15 01:07:10;;;;;;;6.50;4.72;;;;;;;;;;4992782;28;20038;-79
2023/06/15 01:09:38;;;;;;;7.20;5.38;;;;;;;;;;4994943;28;20061;-78
2023/06/15 01:12:07;;;;;;;11.27;5.43;;;;;;;;;;5010840;28;20041;-79
2023/06/15 01:14:35;;;;;;;9.98;5.85;;;;;;;;;;4993765;28;20041;-79
2023/06/15 01:17:05;;;;;;;8.55;5.55;;;;;;;;;;5010792;28;20561;-79
2023/06/15 01:19:40;;;;;;;6.95;4.32;;;;;;;;;;5009352;28;20058;-78
2023/06/15 01:22:29;;;;;;;8.88;4.53;;;;;;;;;;5008118;28;20045;-78
2023/06/15 01:25:12;;;;;;;9.95;5.05;;;;;;;;;;5011136;28;20468;-79
2023/06/15 01:27:40;;;;;;;6.95;4.60;;;;;;;;;;5010441;28;20057;-78
2023/06/15 01:30:07;;;;;;;6.85;4.95;;;;;;;;;;5007158;28;20096;-77
2023/06/15 01:32:34;;;;;;;9.43;4.75;;;;;;;;;;5005642;28;20073;-78
2023/06/15 01:35:01;;;;;;;6.63;4.38;;;;;;;;;;5006080;28;20046;-77
2023/06/15 01:37:28;;;;;;;9.40;5.32;;;;;;;;;;5004997;28;20125;-78
2023/06/15 01:39:55;;;;;;;8.95;5.68;;;;;;;;;;5006692;28;20525;-78
2023/06/15 01:42:22;;;;;;;7.85;5.45;;;;;;;;;;5007761;28;20109;-77
2023/06/15 01:44:52;;;;;;;10.05;5.93;;;;;;;;;;5008963;28;20049;-79
2023/06/15 01:47:20;;;;;;;11.40;6.00;;;;;;;;;;4993238;28;20052;-79
2023/06/15 01:49:47;;;;;;;12.40;5.88;;;;;;;;;;5009363;28;20168;-80
2023/06/15 01:52:14;;;;;;;11.23;5.75;;;;;;;;;;5013462;28;20528;-79
2023/06/15 01:54:41;;;;;;;8.68;5.07;;;;;;;;;;5011058;28;20487;-78
2023/06/15 01:57:07;;;;;;;9.23;5.45;;;;;;;;;;5009634;28;20049;-80
2023/06/15 01:59:34;;;;;;;8.98;5.28;;;;;;;;;;5010003;28;20038;-79
2023/06/15 02:02:01;;;;;;;8.13;5.28;;;;;;;;;;5010325;28;20046;-79
2023/06/15 02:04:28;;;;;;;8.98;5.57;;;;;;;;;;5011955;28;20092;-78
2023/06/15 02:06:57;;;;;;;7.72;5.70;;;;;;;;;;5010256;28;20507;-79
2023/06/15 02:09:24;;;;;;;10.02;5.20;;;;;;;;;;5010270;28;20050;-79
2023/06/15 02:11:50;;;;;;;8.55;5.20;;;;;;;;;;5012893;28;20049;-79
2023/06/15 02:14:18;;;;;;;7.85;5.28;;;;;;;;;;5013045;28;20060;-80
2023/06/15 02:16:48;;;;;;;9.50;5.57;;;;;;;;;;5011376;28;20037;-79
2023/06/15 02:19:21;;;;;;;9.40;5.60;;;;;;;;;;5010874;28;20080;-79
2023/06/15 02:21:49;;;;;;;11.30;5.80;;;;;;;;;;5008006;28;20136;-79
2023/06/15 02:24:16;;;;;;;10.13;5.90;;;;;;;;;;5007372;28;20056;-79
2023/06/15 02:26:43;;;;;;;9.20;5.20;;;;;;;;;;5008693;28;20420;-79
2023/06/15 02:29:10;;;;;;;8.32;5.60;;;;;;;;;;4991438;28;20602;-79
2023/06/15 02:31:37;;;;;;;7.80;5.13;;;;;;;;;;5007242;28;20074;-79
2023/06/15 02:34:04;;;;;;;15.82;5.75;;;;;;;;;;5007847;28;20632;-79
2023/06/15 02:36:31;;;;;;;9.35;5.80;;;;;;;;;;5008593;28;20050;-78
2023/06/15 02:38:58;;;;;;;12.32;5.47;;;;;;;;;;5007932;28;20056;-79
2023/06/15 02:41:25;;;;;;;10.80;5.20;;;;;;;;;;5007890;28;20049;-77
2023/06/15 02:43:52;;;;;;;10.43;5.78;;;;;;;;;;5011446;28;20076;-80
2023/06/15 02:46:20;;;;;;;8.40;5.57;;;;;;;;;;5012640;28;20068;-80
2023/06/15 02:48:51;;;;;;;12.60;5.55;;;;;;;;;;5011304;28;20044;-79
2023/06/15 02:51:20;;;;;;;8.40;5.32;;;;;;;;;;5006073;28;20118;-78
2023/06/15 02:53:47;;;;;;;7.82;5.00;;;;;;;;;;5003841;28;20063;-78
2023/06/15 02:56:18;;;;;;;9.18;5.68;;;;;;;;;;5008149;28;20501;-79
2023/06/15 02:58:47;;;;;;;7.85;5.57;;;;;;;;;;5010999;28;20555;-79
2023/06/15 03:01:18;;;;;;;8.68;5.32;;;;;;;;;;5008066;28;20050;-78
2023/06/15 03:03:52;;;;;;;9.45;5.53;;;;;;;;;;5008620;28;20042;-80
2023/06/15 03:06:20;;;;;;;10.85;5.40;;;;;;;;;;5011132;28;20121;-79
2023/06/15 03:08:47;;;;;;;8.60;5.90;;;;;;;;;;5012901;28;20042;-80
2023/06/15 03:11:22;;;;;;;7.68;5.38;;;;;;;;;;5010282;28;20470;-80
2023/06/15 03:13:50;;;;;;;10.05;6.03;;;;;;;;;;5009094;28;20048;-78
2023/06/15 03:16:17;;;;;;;7.97;5.70;;;;;;;;;;5012054;28;20057;-80
2023/06/15 03:18:47;;;;;;;8.73;6.03;;;;;;;;;;5015946;28;20050;-79
2023/06/15 03:21:14;;;;;;;8.27;5.53;;;;;;;;;;5011553;28;20054;-78
2023/06/15 03:23:44;;;;;;;9.25;5.38;;;;;;;;;;5012530;28;20045;-79
2023/06/15 03:26:11;;;;;;;7.35;5.47;;;;;;;;;;5011929;28;20384;-79
2023/06/15 03:28:39;;;;;;;10.07;5.20;;;;;;;;;;5011450;28;20045;-79
2023/06/15 03:31:10;;;;;;;12.25;5.30;;;;;;;;;;5010440;28;20078;-78
2023/06/15 03:33:37;;;;;;;9.38;5.25;;;;;;;;;;5012087;28;20124;-78
2023/06/15 03:36:04;;;;;;;7.45;5.10;;;;;;;;;;5011200;28;20069;-79
2023/06/15 03:38:33;;;;;;;6.45;4.85;;;;;;;;;;5039830;28;20060;-77
2023/06/15 03:40:59;;;;;;;9.65;5.22;;;;;;;;;;5017027;28;20049;-80
2023/06/15 03:43:26;;;;;;;9.52;5.13;;;;;;;;;;5057890;28;20073;-79
2023/06/15 03:45:53;;;;;;;10.52;5.53;;;;;;;;;;5019336;28;20045;-79
2023/06/15 03:48:20;;;;;;;11.00;5.80;;;;;;;;;;5033254;28;20057;-79
2023/06/15 03:50:47;;;;;;;12.05;6.65;;;;;;;;;;5047460;28;20037;-80
2023/06/15 03:53:14;;;;;;;9.23;6.30;;;;;;;;;;5041564;28;20054;-79
2023/06/15 03:55:40;;;;;;;11.45;6.15;;;;;;;;;;5017743;28;20038;-79
2023/06/15 03:58:07;;;;;;;12.20;6.45;;;;;;;;;;5017037;28;20054;-78
2023/06/15 04:00:34;;;;;;;8.30;6.03;;;;;;;;;;5010954;28;20125;-79
2023/06/15 04:03:01;;;;;;;13.40;5.63;;;;;;;;;;5012993;28;20057;-78
2023/06/15 04:05:28;;;;;;;9.40;6.20;;;;;;;;;;5011160;28;20057;-77
2023/06/15 04:07:54;;;;;;;10.77;5.45;;;;;;;;;;4991216;28;20478;-78
2023/06/15 04:10:21;;;;;;;8.07;5.75;;;;;;;;;;5006080;28;20053;-80
2023/06/15 04:12:47;;;;;;;13.45;5.55;;;;;;;;;;5010816;28;20616;-79
2023/06/15 04:15:15;;;;;;;8.13;5.60;;;;;;;;;;5010963;28;20140;-78
2023/06/15 04:17:48;;;;;;;10.38;5.65;;;;;;;;;;5010140;28;20688;-78
2023/06/15 04:20:15;;;;;;;7.95;5.80;;;;;;;;;;5006139;28;20077;-78
2023/06/15 04:22:46;;;;;;;10.07;6.07;;;;;;;;;;5009399;28;20121;-80
2023/06/15 04:25:12;;;;;;;11.90;7.13;;;;;;;;;;5007566;28;20046;-77
2023/06/15 04:27:40;;;;;;;8.75;5.93;;;;;;;;;;5007672;28;20052;-77
2023/06/15 04:30:07;;;;;;;12.25;5.80;;;;;;;;;;4988503;28;20546;-77
2023/06/15 04:32:35;;;;;;;12.70;6.47;;;;;;;;;;5002400;28;20054;-76
2023/06/15 04:35:03;;;;;;;9.85;6.80;;;;;;;;;;5005645;28;20045;-77
2023/06/15 04:37:32;;;;;;;12.80;6.97;;;;;;;;;;5005438;28;20518;-77
2023/06/15 04:40:00;;;;;;;12.77;7.00;;;;;;;;;;4989011;28;20037;-77
2023/06/15 04:42:33;;;;;;;10.35;7.00;;;;;;;;;;5006041;28;20046;-76
2023/06/15 04:45:03;;;;;;;10.02;5.95;;;;;;;;;;5005481;28;20395;-78
2023/06/15 04:47:30;;;;;;;9.73;6.38;;;;;;;;;;5009001;28;20368;-79
2023/06/15 04:49:57;;;;;;;12.18;6.28;;;;;;;;;;5016009;28;20105;-79
2023/06/15 04:52:24;;;;;;;12.43;6.78;;;;;;;;;;5001868;28;20116;-79
2023/06/15 04:54:50;;;;;;;13.70;6.47;;;;;;;;;;5017673;28;20419;-79
2023/06/15 04:57:17;;;;;;;12.40;7.05;;;;;;;;;;5036693;28;20046;-78
2023/06/15 04:59:48;;;;;;;11.38;6.53;;;;;;;;;;5041255;28;20053;-79
2023/06/15 05:02:14;;;;;;;9.38;6.43;;;;;;;;;;5012722;28;20107;-78
2023/06/15 05:04:41;;;;;;;10.48;6.55;;;;;;;;;;5025842;28;20053;-79
2023/06/15 05:07:12;;;;;;;14.05;6.13;;;;;;;;;;5013807;28;20042;-79
2023/06/15 05:09:45;;;;;;;12.57;6.78;;;;;;;;;;5001016;28;20065;-79
2023/06/15 05:12:21;;;;;;;6.20;4.30;;;;;;;;;;5013433;28;20042;-79
2023/06/15 05:14:48;;;;;;;9.55;6.20;;;;;;;;;;5017922;28;20046;-79
2023/06/15 05:17:15;;;;;;;8.27;5.63;;;;;;;;;;5015504;28;20418;-79
2023/06/15 05:19:49;;;;;;;12.43;5.90;;;;;;;;;;5000486;28;20042;-79
2023/06/15 05:22:16;;;;;;;11.18;5.75;;;;;;;;;;5016930;28;20052;-79
2023/06/15 05:24:43;;;;;;;13.27;5.78;;;;;;;;;;5011941;28;20052;-79
2023/06/15 05:27:12;;;;;;;11.15;5.82;;;;;;;;;;5015981;28;20061;-79
2023/06/15 05:30:11;;;;;;;10.57;6.10;;;;;;;;;;5000507;28;20038;-79
2023/06/15 05:32:42;;;;;;;13.98;5.90;;;;;;;;;;5010394;28;20041;-78
2023/06/15 05:35:20;;;;;;;12.48;6.35;;;;;;;;;;5012622;28;20148;-79
2023/06/15 05:37:53;;;;;;;11.63;5.63;;;;;;;;;;5010929;28;20129;-79
2023/06/15 05:40:21;;;;;;;9.68;5.85;;;;;;;;;;5011115;28;20046;-79
2023/06/15 05:42:52;;;;;;;14.88;6.18;;;;;;;;;;5012881;28;20502;-79
2023/06/15 05:45:19;;;;;;;11.82;5.90;;;;;;;;;;5012968;28;20077;-79
2023/06/15 05:47:46;;;;;;;15.63;6.43;;;;;;;;;;5021680;28;20095;-79
2023/06/15 05:50:18;;;;;;;13.98;6.28;;;;;;;;;;5019071;28;20049;-79
2023/06/15 05:52:44;;;;;;;16.05;6.95;;;;;;;;;;5024613;28;20753;-79
2023/06/15 05:55:11;;;;;;;10.10;5.68;;;;;;;;;;5023524;28;20053;-79
2023/06/15 05:57:38;;;;;;;9.93;5.40;;;;;;;;;;5027302;28;20050;-79
2023/06/15 06:00:05;;;;;;;9.38;6.07;;;;;;;;;;5024137;28;20069;-79
2023/06/15 06:02:42;;;;;;;12.57;5.90;;;;;;;;;;5027179;28;20046;-79
2023/06/15 06:05:18;;;;;;;11.85;5.75;;;;;;;;;;5023675;28;20212;-80
2023/06/15 06:07:46;;;;;;;17.95;5.72;;;;;;;;;;5024518;28;20046;-79
2023/06/15 06:10:13;;;;;;;9.60;5.57;;;;;;;;;;5022156;28;20073;-78
2023/06/15 06:12:40;;;;;;;10.05;5.57;;;;;;;;;;5015510;28;20049;-79
2023/06/15 06:15:07;;;;;;;10.43;5.80;;;;;;;;;;5017443;28;20081;-78
2023/06/15 06:17:43;;;;;;;8.70;5.35;;;;;;;;;;5018004;28;20050;-79
2023/06/15 06:20:35;;;;;;;8.90;5.15;;;;;;;;;;5015640;28;20050;-78
2023/06/15 06:23:10;;;;;;;16.50;5.70;;;;;;;;;;5018181;28;20089;-79
2023/06/15 06:25:38;;;;;;;8.18;5.28;;;;;;;;;;5015102;28;20112;-78
2023/06/15 06:28:10;;;;;;;9.13;5.55;;;;;;;;;;5012707;28;20080;-78
2023/06/15 06:31:24;;;;;;;9.95;5.97;;;;;;;;;;5011197;28;20036;-78
2023/06/15 06:34:16;;;;;;;8.35;4.60;;;;;;;;;;5008188;28;22425;-79
2023/06/15 06:36:43;;;;;;;10.75;4.78;;;;;;;;;;5008575;28;20054;-79
2023/06/15 06:39:10;;;;;;;11.32;4.82;;;;;;;;;;5011198;28;20421;-79
2023/06/15 06:41:37;;;;;;;7.90;5.50;;;;;;;;;;5009081;28;20050;-79
2023/06/15 06:44:03;;;;;;;9.10;5.18;;;;;;;;;;5007607;28;20112;-78
2023/06/15 06:46:30;;;;;;;8.52;5.00;;;;;;;;;;5008153;28;20411;-78
2023/06/15 06:48:56;;;;;;;9.48;4.80;;;;;;;;;;5008706;28;20105;-78
2023/06/15 06:51:23;;;;;;;11.98;5.85;;;;;;;;;;5010967;28;20045;-77
2023/06/15 06:53:49;;;;;;;10.18;5.57;;;;;;;;;;5012458;28;20250;-78
2023/06/15 06:56:17;;;;;;;8.45;5.72;;;;;;;;;;5012704;28;20041;-77
2023/06/15 06:58:44;;;;;;;9.27;5.25;;;;;;;;;;5019191;28;20058;-80
2023/06/15 07:01:23;;;;;;;7.25;4.80;;;;;;;;;;5032465;28;20042;-79
2023/06/15 07:04:38;;;;;;;9.13;4.88;;;;;;;;;;5039767;28;20040;-79
2023/06/15 07:07:29;;;;;;;7.00;4.57;;;;;;;;;;5039805;28;20053;-79
2023/06/15 07:10:45;;;;;;;12.20;4.60;;;;;;;;;;5033142;28;20046;-78
2023/06/15 07:13:37;;;;;;;8.02;4.72;;;;;;;;;;5028500;28;20049;-79
2023/06/15 07:16:53;;;;;;;7.15;4.53;;;;;;;;;;5036431;28;20087;-79
2023/06/15 07:19:24;;;;;;;10.43;4.80;;;;;;;;;;5036337;28;20079;-78
2023/06/15 07:22:20;;;;;;;11.85;4.95;;;;;;;;;;5033552;28;20047;-79
2023/06/15 07:24:51;;;;;;;11.95;4.70;;;;;;;;;;5037073;28;20045;-79
2023/06/15 07:28:07;;;;;;;11.20;5.20;;;;;;;;;;5032603;28;20082;-78
2023/06/15 07:30:34;;;;;;;6.93;4.38;;;;;;;;;;5031573;28;20048;-79
2023/06/15 07:33:53;;;;;;;7.88;4.50;;;;;;;;;;5036421;28;20121;-79
2023/06/15 07:36:20;;;;;;;8.90;4.43;;;;;;;;;;5037561;28;20064;-80
2023/06/15 07:38:47;;;;;;;8.88;4.55;;;;;;;;;;5037184;28;20658;-79
2023/06/15 07:41:13;;;;;;;9.95;5.15;;;;;;;;;;5037701;28;20044;-79
2023/06/15 07:43:40;;;;;;;9.23;5.07;;;;;;;;;;5036158;28;20099;-77
2023/06/15 07:46:11;;;;;;;10.13;4.68;;;;;;;;;;5031567;28;20049;-79
2023/06/15 07:49:09;;;;;;;8.90;5.38;;;;;;;;;;5032155;28;20041;-77
2023/06/15 07:52:06;;;;;;;14.48;5.50;;;;;;;;;;5031421;28;20026;-79
2023/06/15 07:55:01;;;;;;;13.57;5.20;;;;;;;;;;5019655;28;20111;-79
2023/06/15 07:58:17;;;;;;;11.98;5.60;;;;;;;;;;5004005;28;20133;-79
2023/06/15 08:01:09;;;;;;;8.35;4.63;;;;;;;;;;5001774;28;20053;-79
2023/06/15 08:04:24;;;;;;;7.50;4.40;;;;;;;;;;4998453;28;20150;-80
2023/06/15 08:07:20;;;;;;;7.70;4.18;;;;;;;;;;4994358;28;20050;-79
2023/06/15 08:09:46;;;;;;;7.00;4.38;;;;;;;;;;4996175;28;20320;-79
2023/06/15 08:12:42;;;;;;;6.47;4.10;;;;;;;;;;4998610;28;20039;-78
2023/06/15 08:15:15;;;;;;;8.02;4.40;;;;;;;;;;4997843;28;20042;-79
2023/06/15 08:18:30;;;;;;;11.32;4.75;;;;;;;;;;4999434;28;20034;-78
2023/06/15 08:21:22;;;;;;;6.03;4.32;;;;;;;;;;4996218;28;20053;-79
2023/06/15 08:24:38;;;;;;;6.38;4.43;;;;;;;;;;4997448;28;20100;-79
2023/06/15 08:27:54;;;;;;;12.05;4.75;;;;;;;;;;4999195;28;20041;-79
2023/06/15 08:30:46;;;;;;;8.40;4.78;;;;;;;;;;4997191;28;20129;-79
2023/06/15 08:34:02;;;;;;;8.60;5.03;;;;;;;;;;4991881;28;20041;-79
2023/06/15 08:36:29;;;;;;;9.10;4.10;;;;;;;;;;4997347;28;20241;-80
2023/06/15 08:39:10;;;;;;;15.15;4.40;;;;;;;;;;5001512;28;20049;-78
2023/06/15 08:41:48;;;;;;;11.73;4.20;;;;;;;;;;5011110;28;20031;-78
2023/06/15 08:44:17;;;;;;;9.38;5.60;;;;;;;;;;4990736;28;20068;-77
2023/06/15 08:46:45;;;;;;;11.07;5.50;;;;;;;;;;4990825;28;20038;-78
2023/06/15 08:49:19;;;;;;;6.90;4.72;;;;;;;;;;4994599;28;20039;-78
2023/06/15 08:51:56;;;;;;;14.13;4.65;;;;;;;;;;4996177;28;20062;-78
2023/06/15 08:55:28;;;;;;;10.13;5.20;;;;;;;;;;4995876;28;20344;-78
2023/06/15 08:58:23;;;;;;;8.20;4.40;;;;;;;;;;4980545;28;20169;-79
2023/06/15 09:01:23;;;;;;;7.80;4.78;;;;;;;;;;4994165;28;20048;-78
2023/06/15 09:04:38;;;;;;;11.43;3.88;;;;;;;;;;4984527;28;20121;-79
2023/06/15 09:07:10;;;;;;;6.22;3.72;;;;;;;;;;4964966;28;20053;-79
2023/06/15 09:10:10;;;;;;;11.02;3.55;;;;;;;;;;4985073;28;20042;-78
2023/06/15 09:12:37;;;;;;;;;;;;;;;;;;4995541;28;20042;-79
2023/06/15 09:15:07;;;;;;;15.20;5.13;;;;;;;;;;4992740;28;19925;-77
2023/06/15 09:17:36;;;;;;;8.35;4.63;;;;;;;;;;4974701;28;20046;-78
2023/06/15 09:20:05;;;;;;;7.78;4.75;;;;;;;;;;4991506;28;20137;-78
2023/06/15 09:22:38;;;;;;;9.18;4.90;;;;;;;;;;4983760;28;20603;-79
2023/06/15 09:25:12;;;;;;;9.65;4.90;;;;;;;;;;4984417;28;20046;-78
2023/06/15 09:27:40;;;;;;;9.63;4.65;;;;;;;;;;4988540;28;20057;-77
2023/06/15 09:30:08;;;;;;;10.88;5.00;;;;;;;;;;4990318;28;20445;-77
2023/06/15 09:32:39;;;;;;;14.23;6.05;;;;;;;;;;4976494;28;20097;-80
2023/06/15 09:35:57;;;;;;;13.18;5.75;;;;;;;;;;4993763;28;20091;-79
2023/06/15 09:38:54;;;;;;;13.43;5.32;;;;;;;;;;4988143;28;20046;-79
2023/06/15 09:42:10;;;;;;;8.93;5.40;;;;;;;;;;4986864;28;20061;-79
2023/06/15 09:45:25;;;;;;;10.70;5.10;;;;;;;;;;4997588;28;20065;-79
2023/06/15 09:48:43;;;;;;;9.10;5.00;;;;;;;;;;4991618;28;20088;-79
2023/06/15 09:51:35;;;;;;;12.38;4.70;;;;;;;;;;4998176;28;20064;-79
2023/06/15 09:54:10;;;;;;;15.73;5.10;;;;;;;;;;5016061;28;20533;-79
2023/06/15 09:56:51;;;;;;;9.15;5.32;;;;;;;;;;5015830;28;20066;-80
2023/06/15 09:59:28;;;;;;;11.90;5.50;;;;;;;;;;5015542;28;20046;-79
2023/06/15 10:02:06;;;;;;;15.02;5.50;;;;;;;;;;5015510;28;20045;-78
2023/06/15 10:05:02;;;;;;;8.55;4.57;;;;;;;;;;5014949;28;20114;-79
2023/06/15 10:07:53;;;;;;;8.95;4.35;;;;;;;;;;5015442;28;20061;-79
2023/06/15 10:11:09;;;;;;;9.20;4.32;;;;;;;;;;5013679;28;20072;-79
2023/06/15 10:14:08;;;;;;;9.07;4.40;;;;;;;;;;5015680;28;20069;-78
2023/06/15 10:16:36;;;;;;;8.60;4.60;;;;;;;;;;5013800;28;20056;-79
2023/06/15 10:19:05;;;;;;;12.63;4.30;;;;;;;;;;5011974;28;20069;-77
2023/06/15 10:21:36;;;;;;;7.07;4.13;;;;;;;;;;5006244;28;20092;-77
2023/06/15 10:24:07;;;;;;;8.50;3.72;;;;;;;;;;5007096;28;20060;-78
2023/06/15 10:26:41;;;;;;;10.48;4.13;;;;;;;;;;5008851;28;20096;-79
2023/06/15 10:29:20;;;;;;;10.32;3.58;;;;;;;;;;5008770;28;20042;-78
2023/06/15 10:32:31;;;;;;;6.13;3.53;;;;;;;;;;5008452;28;20061;-78
2023/06/15 10:35:35;;;;;;;13.13;3.75;;;;;;;;;;5007152;28;20172;-79
2023/06/15 10:38:11;;;;;;;11.93;3.65;;;;;;;;;;5009007;28;20094;-78
2023/06/15 10:40:41;;;;;;;9.00;3.40;;;;;;;;;;5011448;28;20037;-78
2023/06/15 10:43:08;;;;;;;9.90;3.42;;;;;;;;;;5017303;28;20056;-78
2023/06/15 10:46:02;;;;;;;6.78;3.38;;;;;;;;;;5010143;28;20069;-76
2023/06/15 10:49:19;;;;;;;10.15;3.83;;;;;;;;;;5006321;28;20029;-77
2023/06/15 10:52:36;;;;;;;7.50;3.10;;;;;;;;;;5014099;28;20053;-80
2023/06/15 10:55:27;;;;;;;9.82;3.58;;;;;;;;;;5008418;28;20100;-78
2023/06/15 10:59:00;;;;;;;12.43;3.92;;;;;;;;;;4990235;28;20084;-79
2023/06/15 11:01:52;;;;;;;15.68;3.70;;;;;;;;;;4992016;28;20045;-79
2023/06/15 11:05:09;;;;;;;14.60;4.07;;;;;;;;;;4991139;28;20057;-79
2023/06/15 11:07:47;;;;;;;12.23;3.88;;;;;;;;;;4989545;28;20092;-77
2023/06/15 11:10:19;;;;;;;12.93;3.92;;;;;;;;;;4985983;28;20138;-80
2023/06/15 11:13:36;;;;;;;12.90;4.20;;;;;;;;;;4990784;28;20061;-78
2023/06/15 11:16:12;;;;;;;11.88;3.95;;;;;;;;;;4990958;28;20109;-78
2023/06/15 11:19:27;;;;;;;10.00;3.63;;;;;;;;;;4991078;28;20177;-78
2023/06/15 11:22:07;;;;;;;8.30;4.53;;;;;;;;;;4990712;28;20047;-79
2023/06/15 11:25:03;;;;;;;8.45;4.35;;;;;;;;;;4990240;28;20049;-80
2023/06/15 11:28:24;;;;;;;8.70;4.03;;;;;;;;;;4992930;28;20106;-79
2023/06/15 11:31:29;;;;;;;10.60;4.13;;;;;;;;;;4996171;28;20518;-79
2023/06/15 11:34:21;;;;;;;11.10;4.38;;;;;;;;;;4998801;28;20053;-79
2023/06/15 11:37:22;;;;;;;7.03;4.03;;;;;;;;;;5011066;28;20053;-79
2023/06/15 11:40:38;;;;;;;16.20;4.20;;;;;;;;;;5005968;28;20036;-79
2023/06/15 11:44:01;;;;;;;8.30;4.20;;;;;;;;;;5002193;28;20087;-79
2023/06/15 11:46:54;;;;;;;10.10;4.30;;;;;;;;;;5002284;28;20048;-80
2023/06/15 11:50:09;;;;;;;6.70;4.20;;;;;;;;;;4996089;28;20046;-79
2023/06/15 11:53:00;;;;;;;7.82;4.35;;;;;;;;;;5014239;28;20092;-79
2023/06/15 11:56:16;;;;;;;10.70;4.28;;;;;;;;;;5005455;28;20149;-78
2023/06/15 11:59:09;;;;;;;10.93;4.32;;;;;;;;;;5020244;28;20065;-78
2023/06/15 12:02:24;;;;;;;8.77;4.22;;;;;;;;;;5020473;28;20184;-79
2023/06/15 12:05:17;;;;;;;11.40;3.75;;;;;;;;;;5014673;28;20548;-80
2023/06/15 12:08:32;;;;;;;7.00;3.95;;;;;;;;;;5016289;28;20041;-79
2023/06/15 12:11:48;;;;;;;6.68;3.90;;;;;;;;;;5016733;28;20060;-80
2023/06/15 12:15:05;;;;;;;6.82;3.70;;;;;;;;;;5018895;28;20033;-79
2023/06/15 12:17:33;;;;;;;16.20;4.03;;;;;;;;;;5025145;28;20045;-80
2023/06/15 12:20:01;;;;;;;11.05;4.10;;;;;;;;;;5023674;28;20112;-80
2023/06/15 12:22:32;;;;;;;7.28;3.28;;;;;;;;;;5022808;28;20140;-80
2023/06/15 12:25:42;;;;;;;9.38;3.45;;;;;;;;;;5022083;28;20073;-79
2023/06/15 12:28:12;;;;;;;7.45;4.20;;;;;;;;;;5018975;28;20110;-79
2023/06/15 12:30:39;;;;;;;4.78;3.38;;;;;;;;;;5019322;28;20045;-78
2023/06/15 12:33:22;;;;;;;10.15;3.53;;;;;;;;;;5019811;28;20445;-79
2023/06/15 12:35:50;;;;;;;12.20;4.05;;;;;;;;;;5032965;28;20067;-78
2023/06/15 12:38:17;;;;;;;12.60;4.32;;;;;;;;;;5033083;28;20060;-78
2023/06/15 12:40:44;;;;;;;12.40;3.67;;;;;;;;;;5034408;28;20253;-78
2023/06/15 12:43:11;;;;;;;8.48;3.47;;;;;;;;;;5032208;28;20129;-80
2023/06/15 12:46:02;;;;;;;8.38;3.63;;;;;;;;;;5039677;28;20060;-79
2023/06/15 12:49:18;;;;;;;8.38;3.47;;;;;;;;;;5039029;28;20072;-79
2023/06/15 12:52:13;;;;;;;6.63;3.08;;;;;;;;;;5030305;28;20421;-78
2023/06/15 12:55:09;;;;;;;8.30;3.03;;;;;;;;;;5015319;28;20050;-78
2023/06/15 12:58:25;;;;;;;10.40;3.10;;;;;;;;;;4988871;28;20095;-78
2023/06/15 13:01:40;;;;;;;7.57;3.00;;;;;;;;;;4998705;28;20037;-79
2023/06/15 13:04:32;;;;;;;9.65;3.70;;;;;;;;;;4988825;28;20450;-78
2023/06/15 13:07:47;;;;;;;4.47;2.88;;;;;;;;;;4991913;28;20041;-78
2023/06/15 13:11:04;;;;;;;7.75;2.45;;;;;;;;;;4988610;28;20041;-78
2023/06/15 13:14:19;;;;;;;5.60;2.80;;;;;;;;;;4989133;28;20092;-78
2023/06/15 13:17:10;;;;;;;18.30;3.08;;;;;;;;;;4990229;28;20458;-77
2023/06/15 13:20:25;;;;;;;8.60;3.05;;;;;;;;;;5002506;28;20666;-78
2023/06/15 13:23:42;;;;;;;6.35;3.03;;;;;;;;;;5012200;28;20594;-79
2023/06/15 13:26:33;;;;;;;9.95;2.92;;;;;;;;;;5011458;28;20041;-80
2023/06/15 13:29:48;;;;;;;7.70;3.10;;;;;;;;;;5012150;28;20053;-79
2023/06/15 13:32:20;;;;;;;7.47;2.85;;;;;;;;;;5103800;22;20418;-79
2023/06/15 13:35:12;;;;;;;11.00;3.03;;;;;;;;;;5031023;28;20053;-79
2023/06/15 13:37:39;;;;;;;6.18;3.00;;;;;;;;;;5027638;28;20045;-77
2023/06/15 13:40:06;;;;;;;5.25;3.00;;;;;;;;;;5027129;28;20065;-80
2023/06/15 13:42:38;;;;;;;10.13;3.20;;;;;;;;;;5032217;28;20612;-78
2023/06/15 13:45:07;;;;;;;7.75;2.85;;;;;;;;;;5030407;28;20048;-79
2023/06/15 13:47:34;;;;;;;6.45;2.80;;;;;;;;;;5028131;28;20705;-80
2023/06/15 13:50:51;;;;;;;9.00;3.33;;;;;;;;;;5024187;28;20543;-78
2023/06/15 13:54:06;;;;;;;8.18;3.20;;;;;;;;;;5025714;28;20144;-79
2023/06/15 13:56:58;;;;;;;8.43;3.10;;;;;;;;;;5020712;28;20092;-79
2023/06/15 13:59:55;;;;;;;5.15;2.90;;;;;;;;;;5022755;28;20025;-79
2023/06/15 14:02:22;;;;;;;7.97;3.08;;;;;;;;;;5025778;28;20041;-79
2023/06/15 14:05:37;;;;;;;6.88;3.28;;;;;;;;;;5026934;28;20044;-79
2023/06/15 14:08:10;;;;;;;8.45;3.47;;;;;;;;;;5010978;28;20045;-79
2023/06/15 14:11:26;;;;;;;11.45;3.85;;;;;;;;;;5021777;28;20045;-78
2023/06/15 14:14:17;;;;;;;7.68;3.33;;;;;;;;;;5025769;28;20080;-79
2023/06/15 14:16:44;;;;;;;7.70;3.42;;;;;;;;;;5008657;28;20486;-81
2023/06/15 14:19:10;;;;;;;8.35;3.38;;;;;;;;;;5025644;28;20057;-80
2023/06/15 14:21:37;;;;;;;10.18;3.33;;;;;;;;;;5024927;28;20041;-77
2023/06/15 14:24:04;;;;;;;7.90;3.38;;;;;;;;;;5025630;28;20095;-78
2023/06/15 14:26:41;;;;;;;7.90;3.40;;;;;;;;;;5024962;28;20064;-79
2023/06/15 14:29:38;;;;;;;11.57;3.10;;;;;;;;;;5027362;28;20065;-79
2023/06/15 14:32:14;;;;;;;6.22;2.95;;;;;;;;;;5028346;28;20108;-79
2023/06/15 14:34:42;;;;;;;5.38;2.72;;;;;;;;;;5028954;28;20046;-78
2023/06/15 14:37:15;;;;;;;9.68;3.70;;;;;;;;;;5030023;28;20053;-79
2023/06/15 14:40:30;;;;;;;4.40;3.10;;;;;;;;;;5008531;28;20501;-79
2023/06/15 14:43:22;;;;;;;11.45;3.40;;;;;;;;;;5008486;28;20572;-80
2023/06/15 14:46:41;;;;;;;5.43;3.05;;;;;;;;;;5010050;28;20073;-82
2023/06/15 14:49:33;;;;;;;6.22;3.33;;;;;;;;;;5031459;28;20171;-80
2023/06/15 14:52:08;;;;;;;7.33;3.20;;;;;;;;;;5033350;28;20041;-80
2023/06/15 14:55:02;;;;;;;9.52;3.17;;;;;;;;;;5022900;28;20198;-80
2023/06/15 14:57:29;;;;;;;8.30;3.40;;;;;;;;;;5026267;28;20167;-78
2023/06/15 14:59:56;;;;;;;8.45;3.45;;;;;;;;;;5027360;28;20045;-81
2023/06/15 15:02:23;;;;;;;8.15;3.28;;;;;;;;;;5030019;28;20077;-80
2023/06/15 15:04:59;;;;;;;7.70;3.10;;;;;;;;;;5033752;28;20137;-80
2023/06/15 15:07:51;;;;;;;7.05;3.38;;;;;;;;;;5032680;28;20056;-78
2023/06/15 15:10:49;;;;;;;9.40;3.33;;;;;;;;;;5031908;28;20049;-79
2023/06/15 15:13:41;;;;;;;6.18;3.42;;;;;;;;;;5039504;28;20048;-80
2023/06/15 15:16:39;;;;;;;7.43;3.50;;;;;;;;;;5039631;28;20070;-79
2023/06/15 15:19:56;;;;;;;10.73;3.72;;;;;;;;;;5038602;28;20094;-78
2023/06/15 15:23:11;;;;;;;10.40;3.40;;;;;;;;;;5038409;28;20067;-79
2023/06/15 15:25:43;;;;;;;10.98;3.90;;;;;;;;;;5038919;28;20045;-79
2023/06/15 15:28:41;;;;;;;10.10;3.65;;;;;;;;;;5040673;28;20191;-79
2023/06/15 15:31:33;;;;;;;9.90;3.20;;;;;;;;;;5029781;28;20103;-79
2023/06/15 15:34:48;;;;;;;9.90;3.70;;;;;;;;;;5035402;28;24248;-79
2023/06/15 15:37:15;;;;;;;4.72;3.03;;;;;;;;;;5036165;28;20037;-79
2023/06/15 15:39:42;;;;;;;8.63;3.10;;;;;;;;;;5036256;28;20045;-79
2023/06/15 15:42:09;;;;;;;6.68;3.20;;;;;;;;;;5033228;28;20041;-79
2023/06/15 15:44:35;;;;;;;6.53;3.13;;;;;;;;;;5037626;28;20111;-79
2023/06/15 15:47:06;;;;;;;6.15;2.80;;;;;;;;;;5036160;28;20045;-79
2023/06/15 15:49:32;;;;;;;6.70;3.13;;;;;;;;;;5019741;28;20511;-80
2023/06/15 15:52:48;;;;;;;8.02;2.83;;;;;;;;;;5035577;28;20039;-79
2023/06/15 15:55:15;;;;;;;12.07;3.08;;;;;;;;;;5035860;28;20059;-80